createdAt,value
2022-09-21T00:01:31.579Z,97372.02
2022-09-21T00:04:02.833Z,97374.02
2022-09-21T00:06:34.293Z,97372.67
2022-09-21T00:09:05.467Z,97374.04
2022-09-21T00:11:35.701Z,97372.61
2022-09-21T00:14:10.772Z,97368.32
2022-09-21T00:16:41.299Z,97369.67
2022-09-21T00:19:10.545Z,97370.15
2022-09-21T00:21:39.010Z,97372.93
2022-09-21T00:24:07.743Z,97377.29
2022-09-21T00:26:35.599Z,97373.32
2022-09-21T00:29:04.383Z,97374.83
2022-09-21T00:31:33.298Z,97368.73
2022-09-21T00:34:01.918Z,97369.02
2022-09-21T00:36:29.755Z,97369.32
2022-09-21T00:39:01.875Z,97371.45
2022-09-21T00:41:32.825Z,97371.59
2022-09-21T00:44:16.005Z,97372.70
2022-09-21T00:46:46.793Z,97370.44
2022-09-21T00:49:15.829Z,97370.08
2022-09-21T00:51:44.655Z,97370.34
2022-09-21T00:54:17.191Z,97372.35
2022-09-21T00:56:45.694Z,97366.48
2022-09-21T00:59:21.010Z,97365.69
2022-09-21T01:01:50.142Z,97364.92
2022-09-21T01:04:19.048Z,97364.55
2022-09-21T01:06:50.463Z,97365.04
2022-09-21T01:09:19.064Z,97362.65
2022-09-21T01:12:03.104Z,97356.92
2022-09-21T01:15:00.259Z,97358.83
2022-09-21T01:17:51.918Z,97357.99
2022-09-21T01:20:41.287Z,97356.70
2022-09-21T01:23:15.215Z,97354.90
2022-09-21T01:25:53.877Z,97347.83
2022-09-21T01:28:56.158Z,97355.11
2022-09-21T01:31:40.040Z,97351.05
2022-09-21T01:34:18.879Z,97354.08
2022-09-21T01:36:49.986Z,97352.11
2022-09-21T01:39:21.838Z,97350.21
2022-09-21T01:41:52.270Z,97348.46
2022-09-21T01:44:24.004Z,97347.52
2022-09-21T01:46:53.318Z,97345.85
2022-09-21T01:49:36.616Z,97344.50
2022-09-21T01:52:21.517Z,97347.35
2022-09-21T01:54:56.683Z,97349.70
2022-09-21T01:57:44.668Z,97347.63
2022-09-21T02:00:13.350Z,97345.48
2022-09-21T02:03:02.808Z,97343.32
2022-09-21T02:05:30.880Z,97344.57
2022-09-21T02:08:00.101Z,97344.95
2022-09-21T02:10:39.260Z,97352.19
2022-09-21T02:13:09.809Z,97354.81
2022-09-21T02:15:43.608Z,97352.49
2022-09-21T02:18:16.171Z,97356.59
2022-09-21T02:20:52.476Z,97356.71
2022-09-21T02:23:37.483Z,97359.01
2022-09-21T02:26:13.523Z,97355.56
2022-09-21T02:28:53.748Z,97358.66
2022-09-21T02:31:21.554Z,97365.40
2022-09-21T02:34:16.860Z,97363.63
2022-09-21T02:36:50.087Z,97363.17
2022-09-21T02:39:25.109Z,97363.58
2022-09-21T02:42:07.731Z,97362.05
2022-09-21T02:44:52.562Z,97363.33
2022-09-21T02:47:27.144Z,97364.98
2022-09-21T02:50:01.938Z,97362.68
2022-09-21T02:52:32.563Z,97365.27
2022-09-21T02:55:02.245Z,97362.36
2022-09-21T02:57:31.173Z,97358.71
2022-09-21T02:59:59.340Z,97355.39
2022-09-21T03:02:37.514Z,97353.02
2022-09-21T03:05:06.291Z,97349.07
2022-09-21T03:07:34.517Z,97348.61
2022-09-21T03:10:03.042Z,97354.32
2022-09-21T03:12:32.903Z,97350.55
2022-09-21T03:15:00.807Z,97358.42
2022-09-21T03:17:28.703Z,97362.33
2022-09-21T03:19:56.717Z,97364.42
2022-09-21T03:22:24.980Z,97366.70
2022-09-21T03:24:53.479Z,97364.80
2022-09-21T03:27:22.387Z,97367.94
2022-09-21T03:29:50.169Z,97371.90
2022-09-21T03:32:18.084Z,97370.36
2022-09-21T03:34:45.859Z,97374.29
2022-09-21T03:37:13.750Z,97376.98
2022-09-21T03:39:41.680Z,97374.80
2022-09-21T03:42:10.501Z,97374.73
2022-09-21T03:44:38.402Z,97375.73
2022-09-21T03:47:06.839Z,97376.90
2022-09-21T03:49:35.230Z,97383.90
2022-09-21T03:52:03.955Z,97381.63
2022-09-21T03:54:31.801Z,97377.99
2022-09-21T03:56:59.779Z,97380.78
2022-09-21T03:59:28.157Z,97384.23
2022-09-21T04:01:56.155Z,97386.48
2022-09-21T04:04:23.990Z,97383.53
2022-09-21T04:06:52.240Z,97385.36
2022-09-21T04:09:20.184Z,97385.12
2022-09-21T04:11:48.525Z,97387.39
2022-09-21T04:14:17.569Z,97387.25
2022-09-21T04:16:45.439Z,97389.58
2022-09-21T04:19:13.307Z,97392.67
2022-09-21T04:21:41.195Z,97398.60
2022-09-21T04:24:09.187Z,97404.98
2022-09-21T04:26:37.126Z,97409.18
2022-09-21T04:29:05.623Z,97411.27
2022-09-21T04:31:34.231Z,97416.79
2022-09-21T04:34:02.098Z,97415.89
2022-09-21T04:36:34.330Z,97417.52
2022-09-21T04:39:05.969Z,97421.34
2022-09-21T04:41:34.225Z,97422.15
2022-09-21T04:44:02.395Z,97422.79
2022-09-21T04:46:30.709Z,97425.45
2022-09-21T04:48:58.790Z,97426.80
2022-09-21T04:51:26.648Z,97427.02
2022-09-21T04:53:54.654Z,97428.60
2022-09-21T04:56:22.600Z,97427.13
2022-09-21T04:58:50.427Z,97429.16
2022-09-21T05:01:18.314Z,97431.28
2022-09-21T05:03:46.333Z,97433.75
2022-09-21T05:06:15.166Z,97435.04
2022-09-21T05:09:01.800Z,97439.64
2022-09-21T05:11:29.991Z,97441.45
2022-09-21T05:13:57.850Z,97442.99
2022-09-21T05:16:25.647Z,97447.83
2022-09-21T05:18:57.104Z,97451.02
2022-09-21T05:21:25.059Z,97456.55
2022-09-21T05:23:53.095Z,97457.97
2022-09-21T05:26:21.039Z,97460.05
2022-09-21T05:28:49.623Z,97459.35
2022-09-21T05:31:18.437Z,97457.86
2022-09-21T05:33:58.809Z,97456.48
2022-09-21T05:36:36.133Z,97458.15
2022-09-21T05:39:04.266Z,97460.54
2022-09-21T05:41:32.547Z,97461.14
2022-09-21T05:44:00.742Z,97459.28
2022-09-21T05:46:41.758Z,97462.74
2022-09-21T05:49:21.108Z,97464.91
2022-09-21T05:52:27.488Z,97463.98
2022-09-21T05:55:15.116Z,97467.56
2022-09-21T05:58:13.861Z,97469.06
2022-09-21T06:01:03.013Z,97470.61
2022-09-21T06:03:32.461Z,97471.08
2022-09-21T06:06:00.322Z,97470.29
2022-09-21T06:08:28.435Z,97468.71
2022-09-21T06:10:56.586Z,97466.52
2022-09-21T06:13:24.491Z,97463.52
2022-09-21T06:15:52.859Z,97468.81
2022-09-21T06:18:20.737Z,97465.45
2022-09-21T06:20:48.715Z,97464.50
2022-09-21T06:23:16.583Z,97468.00
2022-09-21T06:25:44.449Z,97466.13
2022-09-21T06:28:13.720Z,97466.59
2022-09-21T06:30:42.989Z,97469.48
2022-09-21T06:33:11.133Z,97463.17
2022-09-21T06:35:40.530Z,97467.00
2022-09-21T06:38:08.436Z,97463.75
2022-09-21T06:40:37.601Z,97464.98
2022-09-21T06:43:06.013Z,97459.88
2022-09-21T06:45:34.594Z,97459.59
2022-09-21T06:48:02.710Z,97466.98
2022-09-21T06:50:30.598Z,97464.33
2022-09-21T06:53:02.803Z,97463.52
2022-09-21T06:55:31.834Z,97462.20
2022-09-21T06:58:02.191Z,97461.15
2022-09-21T07:00:30.870Z,97462.69
2022-09-21T07:02:59.863Z,97459.78
2022-09-21T07:05:27.815Z,97458.83
2022-09-21T07:07:59.318Z,97465.02
2022-09-21T07:10:27.541Z,97462.70
2022-09-21T07:12:55.684Z,97463.43
2022-09-21T07:15:23.805Z,97463.14
2022-09-21T07:17:59.108Z,97461.99
2022-09-21T07:20:33.049Z,97460.98
2022-09-21T07:23:01.930Z,97465.81
2022-09-21T07:25:30.030Z,97465.20
2022-09-21T07:28:01.288Z,97466.55
2022-09-21T07:30:30.074Z,97466.27
2022-09-21T07:32:58.884Z,97468.05
2022-09-21T07:35:26.847Z,97473.25
2022-09-21T07:37:57.631Z,97470.54
2022-09-21T07:40:25.739Z,97472.42
2022-09-21T07:42:58.135Z,97470.21
2022-09-21T07:45:27.267Z,97473.33
2022-09-21T07:47:56.650Z,97474.06
2022-09-21T07:50:24.601Z,97471.33
2022-09-21T07:52:52.639Z,97458.71
2022-09-21T07:55:20.669Z,97460.75
2022-09-21T07:58:08.830Z,97465.19
2022-09-21T08:00:37.534Z,97467.02
2022-09-21T08:03:06.827Z,97469.58
2022-09-21T08:05:34.933Z,97470.81
2022-09-21T08:08:02.967Z,97471.38
2022-09-21T08:10:32.297Z,97466.17
2022-09-21T08:13:00.231Z,97470.75
2022-09-21T08:15:47.473Z,97475.65
2022-09-21T08:18:16.206Z,97469.88
2022-09-21T08:20:44.199Z,97472.09
2022-09-21T08:23:12.733Z,97471.23
2022-09-21T08:25:41.268Z,97467.05
2022-09-21T08:28:10.166Z,97468.90
2022-09-21T08:30:38.405Z,97464.92
2022-09-21T08:33:07.240Z,97468.40
2022-09-21T08:35:35.777Z,97466.55
2022-09-21T08:38:03.732Z,97465.52
2022-09-21T08:40:34.113Z,97467.29
2022-09-21T08:43:28.327Z,97469.17
2022-09-21T08:45:58.456Z,97468.36
2022-09-21T08:48:36.599Z,97468.65
2022-09-21T08:51:10.131Z,97465.57
2022-09-21T08:53:40.668Z,97463.84
2022-09-21T08:56:13.528Z,97458.92
2022-09-21T08:58:42.619Z,97453.75
2022-09-21T09:01:33.798Z,97453.05
2022-09-21T09:04:05.892Z,97457.02
2022-09-21T09:06:59.639Z,97456.98
2022-09-21T09:09:56.088Z,97453.56
2022-09-21T09:12:45.744Z,97451.50
2022-09-21T09:15:38.530Z,97449.14
2022-09-21T09:18:42.745Z,97448.92
2022-09-21T09:21:16.318Z,97441.70
2022-09-21T09:24:01.644Z,97447.29
2022-09-21T09:26:44.461Z,97446.27
2022-09-21T09:29:29.551Z,97443.84
2022-09-21T09:32:01.460Z,97443.73
2022-09-21T09:34:34.343Z,97441.54
2022-09-21T09:37:27.758Z,97437.39
2022-09-21T09:39:58.015Z,97435.56
2022-09-21T09:42:34.704Z,97429.23
2022-09-21T09:45:25.341Z,97427.38
2022-09-21T09:48:02.733Z,97421.59
2022-09-21T09:50:35.415Z,97420.61
2022-09-21T09:53:19.115Z,97419.73
2022-09-21T09:55:50.404Z,97422.47
2022-09-21T09:58:26.024Z,97416.17
2022-09-21T10:00:57.675Z,97420.91
2022-09-21T10:03:27.931Z,97409.02
2022-09-21T10:05:56.668Z,97416.11
2022-09-21T10:08:33.596Z,97421.95
2022-09-21T10:11:01.781Z,97422.58
2022-09-21T10:13:34.205Z,97421.66
2022-09-21T10:16:04.778Z,97421.20
2022-09-21T10:18:45.168Z,97419.81
2022-09-21T10:21:20.746Z,97417.85
2022-09-21T10:23:53.054Z,97412.20
2022-09-21T10:26:22.291Z,97417.30
2022-09-21T10:28:56.300Z,97416.23
2022-09-21T10:31:27.233Z,97420.05
2022-09-21T10:34:16.347Z,97419.91
2022-09-21T10:36:51.933Z,97415.85
2022-09-21T10:39:21.428Z,97414.76
2022-09-21T10:41:52.939Z,97416.68
2022-09-21T10:44:26.990Z,97417.58
2022-09-21T10:49:29.017Z,97415.99
2022-09-21T10:51:59.529Z,97411.71
2022-09-21T10:54:33.656Z,97405.91
2022-09-21T10:57:07.762Z,97401.52
2022-09-21T10:59:38.869Z,97402.27
2022-09-21T11:02:38.775Z,97404.25
2022-09-21T11:05:22.528Z,97400.56
2022-09-21T11:08:22.648Z,97402.44
2022-09-21T11:11:14.249Z,97393.85
2022-09-21T11:13:54.463Z,97391.90
2022-09-21T11:16:47.024Z,97396.27
2022-09-21T11:19:25.491Z,97395.59
2022-09-21T11:22:08.752Z,97393.90
2022-09-21T11:24:42.935Z,97390.73
2022-09-21T11:27:21.641Z,97388.98
2022-09-21T11:29:49.351Z,97388.10
2022-09-21T11:32:55.221Z,97384.05
2022-09-21T11:35:53.139Z,97382.32
2022-09-21T11:39:00.063Z,97379.90
2022-09-21T11:41:36.992Z,97382.05
2022-09-21T11:44:22.937Z,97379.56
2022-09-21T11:47:05.699Z,97378.13
2022-09-21T11:50:29.286Z,97379.55
2022-09-21T11:53:11.678Z,97376.55
2022-09-21T11:56:06.977Z,97376.58
2022-09-21T11:58:53.268Z,97368.85
2022-09-21T12:01:31.533Z,97364.38
2022-09-21T12:04:17.908Z,97361.98
2022-09-21T12:07:07.016Z,97363.27
2022-09-21T12:09:56.826Z,97363.16
2022-09-21T12:12:38.172Z,97358.63
2022-09-21T12:15:18.628Z,97360.13
2022-09-21T12:18:16.287Z,97364.76
2022-09-21T12:20:44.137Z,97362.48
2022-09-21T12:23:27.454Z,97362.54
2022-09-21T12:25:58.827Z,97364.55
2022-09-21T12:28:39.618Z,97366.58
2022-09-21T12:31:26.721Z,97360.55
2022-09-21T12:34:15.800Z,97359.27
2022-09-21T12:36:52.816Z,97354.04
2022-09-21T12:39:39.007Z,97344.92
2022-09-21T12:42:28.521Z,97346.54
2022-09-21T12:45:03.895Z,97346.63
2022-09-21T12:47:51.755Z,97347.56
2022-09-21T12:50:44.588Z,97351.03
2022-09-21T12:53:20.599Z,97350.18
2022-09-21T12:56:16.431Z,97347.14
2022-09-21T12:59:12.732Z,97349.84
2022-09-21T13:01:57.180Z,97348.63
2022-09-21T13:04:43.416Z,97353.04
2022-09-21T13:07:49.966Z,97353.77
2022-09-21T13:10:45.420Z,97348.50
2022-09-21T13:13:25.657Z,97351.73
2022-09-21T13:15:53.903Z,97349.20
2022-09-21T13:18:35.848Z,97352.39
2022-09-21T13:21:26.549Z,97353.98
2022-09-21T13:23:59.104Z,97354.55
2022-09-21T13:26:31.132Z,97356.35
2022-09-21T13:28:59.065Z,97358.79
2022-09-21T13:31:41.906Z,97356.04
2022-09-21T13:34:16.107Z,97355.05
2022-09-21T13:36:43.864Z,97352.45
2022-09-21T13:39:20.532Z,97352.13
2022-09-21T13:42:04.121Z,97352.85
2022-09-21T13:44:44.141Z,97349.56
2022-09-21T13:47:12.626Z,97352.36
2022-09-21T13:49:54.082Z,97349.89
2022-09-21T13:52:32.495Z,97348.70
2022-09-21T13:55:04.304Z,97346.95
2022-09-21T13:57:45.629Z,97348.94
2022-09-21T14:00:14.024Z,97346.30
2022-09-21T14:02:51.720Z,97347.98
2022-09-21T14:05:35.672Z,97345.20
2022-09-21T14:08:18.252Z,97345.39
2022-09-21T14:10:52.793Z,97348.94
2022-09-21T14:13:37.596Z,97350.23
2022-09-21T14:16:40.126Z,97343.60
2022-09-21T14:19:17.159Z,97344.88
2022-09-21T14:22:09.633Z,97347.71
2022-09-21T14:24:47.148Z,97341.93
2022-09-21T14:27:26.745Z,97343.35
2022-09-21T14:30:08.147Z,97349.73
2022-09-21T14:32:43.769Z,97345.73
2022-09-21T14:35:24.096Z,97347.71
2022-09-21T14:38:00.207Z,97343.57
2022-09-21T14:40:36.893Z,97348.40
2022-09-21T14:43:15.799Z,97353.46
2022-09-21T14:46:02.475Z,97352.41
2022-09-21T14:48:56.001Z,97352.42
2022-09-21T14:51:38.440Z,97355.22
2022-09-21T14:54:21.645Z,97361.35
2022-09-21T14:56:54.809Z,97367.05
2022-09-21T14:59:40.296Z,97363.51
2022-09-21T15:02:23.702Z,97369.88
2022-09-21T15:05:31.515Z,97372.88
2022-09-21T15:08:30.006Z,97375.70
2022-09-21T15:11:12.460Z,97380.71
2022-09-21T15:14:11.324Z,97379.69
2022-09-21T15:16:43.386Z,97383.52
2022-09-21T15:19:21.786Z,97384.79
2022-09-21T15:22:09.716Z,97392.92
2022-09-21T15:24:37.678Z,97393.96
2022-09-21T15:27:16.019Z,97392.05
2022-09-21T15:29:49.109Z,97398.93
2022-09-21T15:32:41.544Z,97401.20
2022-09-21T15:35:15.349Z,97402.02
2022-09-21T15:37:43.522Z,97399.83
2022-09-21T15:40:26.654Z,97405.41
2022-09-21T15:43:19.157Z,97406.81
2022-09-21T15:45:46.930Z,97411.03
2022-09-21T15:48:14.907Z,97416.90
2022-09-21T15:50:45.054Z,97415.92
2022-09-21T15:53:21.964Z,97418.94
2022-09-21T15:55:50.669Z,97423.53
2022-09-21T15:58:37.254Z,97421.92
2022-09-21T16:01:17.251Z,97421.81
2022-09-21T16:03:45.324Z,97427.10
2022-09-21T16:06:22.548Z,97429.89
2022-09-21T16:08:50.968Z,97438.48
2022-09-21T16:11:37.974Z,97442.83
2022-09-21T16:14:31.547Z,97446.27
2022-09-21T16:17:15.144Z,97450.60
2022-09-21T16:20:03.517Z,97449.87
2022-09-21T16:22:47.676Z,97452.69
2022-09-21T16:25:16.180Z,97454.95
2022-09-21T16:27:52.457Z,97455.18
2022-09-21T16:30:51.255Z,97456.54
2022-09-21T16:33:41.268Z,97457.39
2022-09-21T16:36:22.334Z,97457.27
2022-09-21T16:38:50.596Z,97458.44
2022-09-21T16:41:19.290Z,97461.44
2022-09-21T16:43:47.265Z,97462.61
2022-09-21T16:46:15.258Z,97464.58
2022-09-21T16:48:44.452Z,97464.36
2022-09-21T16:51:13.417Z,97467.10
2022-09-21T16:53:41.573Z,97470.04
2022-09-21T16:56:15.497Z,97474.16
2022-09-21T16:58:45.267Z,97475.02
2022-09-21T17:01:16.327Z,97476.06
2022-09-21T17:03:46.565Z,97481.17
2022-09-21T17:06:17.513Z,97484.25
2022-09-21T17:08:49.672Z,97488.66
2022-09-21T17:11:20.262Z,97487.31
2022-09-21T17:13:50.018Z,97487.55
2022-09-21T17:16:19.777Z,97489.33
2022-09-21T17:18:48.943Z,97493.48
2022-09-21T17:21:17.419Z,97497.83
2022-09-21T17:23:46.327Z,97496.80
2022-09-21T17:26:18.063Z,97501.58
2022-09-21T17:28:46.214Z,97500.11
2022-09-21T17:31:19.043Z,97500.95
2022-09-21T17:33:50.413Z,97500.97
2022-09-21T17:36:19.422Z,97503.09
2022-09-21T17:38:47.377Z,97501.89
2022-09-21T17:41:24.549Z,97506.81
2022-09-21T17:43:58.604Z,97507.24
2022-09-21T17:46:39.007Z,97507.17
2022-09-21T17:49:10.846Z,97513.66
2022-09-21T17:51:57.464Z,97512.65
2022-09-21T17:54:25.719Z,97512.99
2022-09-21T17:57:11.969Z,97517.95
2022-09-21T17:59:42.362Z,97520.44
2022-09-21T18:02:23.006Z,97520.85
2022-09-21T18:04:58.292Z,97519.30
2022-09-21T18:07:26.472Z,97521.13
2022-09-21T18:09:55.357Z,97525.05
2022-09-21T18:12:38.340Z,97530.39
2022-09-21T18:15:25.118Z,97533.99
2022-09-21T18:18:18.950Z,97533.01
2022-09-21T18:21:04.819Z,97536.66
2022-09-21T18:23:41.425Z,97538.00
2022-09-21T18:26:13.451Z,97540.28
2022-09-21T18:28:44.915Z,97532.98
2022-09-21T18:31:18.704Z,97537.34
2022-09-21T18:34:13.354Z,97538.54
2022-09-21T18:37:12.773Z,97539.29
2022-09-21T18:40:02.988Z,97546.13
2022-09-21T18:42:45.230Z,97544.85
2022-09-21T18:45:19.903Z,97543.53
2022-09-21T18:47:50.992Z,97545.19
2022-09-21T18:50:23.747Z,97547.56
2022-09-21T18:53:06.802Z,97548.16
2022-09-21T18:55:37.342Z,97553.55
2022-09-21T18:58:05.351Z,97550.91
2022-09-21T19:00:35.275Z,97556.54
2022-09-21T19:03:23.619Z,97557.92
2022-09-21T19:06:13.411Z,97559.10
2022-09-21T19:08:54.876Z,97554.38
2022-09-21T19:11:27.072Z,97553.48
2022-09-21T19:14:00.138Z,97550.74
2022-09-21T19:16:44.042Z,97551.23
2022-09-21T19:19:38.141Z,97547.58
2022-09-21T19:22:16.721Z,97547.27
2022-09-21T19:24:58.674Z,97542.79
2022-09-21T19:27:36.138Z,97546.95
2022-09-21T19:30:13.995Z,97548.71
2022-09-21T19:32:44.792Z,97547.91
2022-09-21T19:35:20.677Z,97545.23
2022-09-21T19:37:50.239Z,97544.28
2022-09-21T19:40:21.470Z,97543.30
2022-09-21T19:43:20.990Z,97536.21
2022-09-21T19:46:26.625Z,97533.10
2022-09-21T19:49:03.952Z,97532.98
2022-09-21T19:51:54.023Z,97526.80
2022-09-21T19:54:43.338Z,97526.41
2022-09-21T19:57:36.088Z,97523.59
2022-09-21T20:00:07.760Z,97522.61
2022-09-21T20:03:05.961Z,97522.20
2022-09-21T20:05:49.722Z,97520.96
2022-09-21T20:08:36.409Z,97520.74
2022-09-21T20:11:19.871Z,97520.39
2022-09-21T20:14:00.227Z,97524.19
2022-09-21T20:16:37.438Z,97523.43
2022-09-21T20:19:39.133Z,97525.36
2022-09-21T20:22:13.644Z,97523.81
2022-09-21T20:25:00.941Z,97524.28
2022-09-21T20:27:35.006Z,97522.48
2022-09-21T20:30:06.030Z,97526.21
2022-09-21T20:32:37.031Z,97524.41
2022-09-21T20:35:23.658Z,97527.83
2022-09-21T20:37:52.080Z,97526.77
2022-09-21T20:40:24.660Z,97530.14
2022-09-21T20:42:54.061Z,97531.94
2022-09-21T20:45:22.841Z,97526.27
2022-09-21T20:47:51.961Z,97525.54
2022-09-21T20:50:20.832Z,97524.79
2022-09-21T20:52:48.629Z,97514.80
2022-09-21T20:55:17.732Z,97516.20
2022-09-21T20:57:45.680Z,97519.30
2022-09-21T21:00:15.512Z,97518.45
2022-09-21T21:02:44.163Z,97512.30
2022-09-21T21:05:12.137Z,97511.91
2022-09-21T21:07:43.741Z,97507.95
2022-09-21T21:10:14.350Z,97501.86
2022-09-21T21:12:42.596Z,97500.42
2022-09-21T21:15:12.509Z,97500.23
2022-09-21T21:17:41.295Z,97498.52
2022-09-21T21:20:10.137Z,97498.41
2022-09-21T21:22:38.105Z,97494.38
2022-09-21T21:25:06.335Z,97497.17
2022-09-21T21:27:36.156Z,97494.84
2022-09-21T21:30:04.649Z,97491.20
2022-09-21T21:32:32.622Z,97491.65
2022-09-21T21:35:00.536Z,97490.86
2022-09-21T21:37:29.425Z,97494.02
2022-09-21T21:39:57.342Z,97489.27
2022-09-21T21:42:25.675Z,97488.42
2022-09-21T21:44:53.547Z,97485.77
2022-09-21T21:47:38.608Z,97482.73
2022-09-21T21:50:08.037Z,97485.89
2022-09-21T21:52:35.805Z,97488.20
2022-09-21T21:55:04.993Z,97490.11
2022-09-21T21:57:33.364Z,97492.05
2022-09-21T22:00:01.411Z,97488.17
2022-09-21T22:02:29.724Z,97492.56
2022-09-21T22:04:57.680Z,97494.68
2022-09-21T22:07:25.644Z,97490.38
2022-09-21T22:09:53.579Z,97490.47
2022-09-21T22:12:22.106Z,97489.34
2022-09-21T22:14:49.921Z,97483.89
2022-09-21T22:17:17.796Z,97480.06
2022-09-21T22:19:45.656Z,97484.02
2022-09-21T22:22:13.597Z,97480.04
2022-09-21T22:24:41.455Z,97476.98
2022-09-21T22:27:09.692Z,97476.20
2022-09-21T22:29:37.490Z,97470.41
2022-09-21T22:32:05.428Z,97469.88
2022-09-21T22:34:33.295Z,97468.70
2022-09-21T22:37:01.234Z,97466.83
2022-09-21T22:39:29.094Z,97463.69
2022-09-21T22:41:57.375Z,97467.30
2022-09-21T22:44:25.212Z,97464.91
2022-09-21T22:46:52.988Z,97464.34
2022-09-21T22:49:20.809Z,97457.33
2022-09-21T22:51:48.640Z,97460.20
2022-09-21T22:54:16.485Z,97457.10
2022-09-21T22:56:44.255Z,97454.52
2022-09-21T22:59:12.178Z,97453.41
2022-09-21T23:01:41.462Z,97450.91
2022-09-21T23:04:12.003Z,97452.42
2022-09-21T23:06:42.858Z,97455.64
2022-09-21T23:09:20.537Z,97452.16
2022-09-21T23:11:53.557Z,97451.10
2022-09-21T23:14:23.338Z,97450.60
2022-09-21T23:16:52.197Z,97449.45
2022-09-21T23:19:20.414Z,97449.64
2022-09-21T23:21:50.249Z,97447.55
2022-09-21T23:24:19.908Z,97446.99
2022-09-21T23:26:51.878Z,97448.71
2022-09-21T23:29:19.945Z,97448.56
2022-09-21T23:31:48.200Z,97449.03
2022-09-21T23:34:16.750Z,97447.34
2022-09-21T23:36:45.877Z,97448.52
2022-09-21T23:39:15.611Z,97447.63
2022-09-21T23:41:43.975Z,97448.95
2022-09-21T23:44:12.017Z,97447.88
2022-09-21T23:46:41.162Z,97450.84
2022-09-21T23:49:09.849Z,97446.42
2022-09-21T23:51:37.764Z,97449.55
2022-09-21T23:54:05.787Z,97449.94
2022-09-21T23:56:34.008Z,97447.58
2022-09-21T23:59:02.145Z,97449.17
